Port Mellon, Canada
Current Conditions -  °F | °C
As of 1:41 AM on Monday 20 Oct 2014 (Local Time) from CYVR Reporting Station
Light Rain Light Rain  
Wind Chill: 59°   Ceiling: 2900
Heat Index: 59°   Visibility: 12mi
Dew Point: 57°   Wind: 8mph
Humidity: 94%   Direction: 80°E
Pressure: 29.67"   Gusts: NA
Location:  49.52°N, 123.48°W
Report Text: CYVR 200841Z 08007KT 12SM -RA FEW005 BKN029 OVC120 15/14 A2967 RMK SF1SC6AC1 SLP046 DENSITY ALT 200FT
Loading
Personal Weather Stations






























Interactive Weather Map New forecast layout! Learn more

10-Day Weather Forecast

Advertisements
Track Severe Weather on mobile